createdAt,value
2023-05-21T00:01:07.009Z,27.47
2023-05-21T00:02:40.683Z,28.63
2023-05-21T00:04:15.715Z,30.43
2023-05-21T00:05:50.219Z,29.70
2023-05-21T00:07:23.902Z,29.73
2023-05-21T00:08:56.996Z,27.67
2023-05-21T00:10:29.156Z,27.77
2023-05-21T00:12:03.590Z,28.70
2023-05-21T00:13:36.798Z,26.23
2023-05-21T00:15:10.866Z,28.57
2023-05-21T00:16:45.221Z,28.23
2023-05-21T00:18:18.399Z,30.10
2023-05-21T00:19:51.848Z,28.53
2023-05-21T00:21:26.107Z,28.37
2023-05-21T00:23:02.871Z,29.07
2023-05-21T00:24:35.038Z,28.70
2023-05-21T00:26:08.130Z,29.70
2023-05-21T00:27:41.290Z,31.40
2023-05-21T00:29:14.424Z,30.97
2023-05-21T00:30:47.752Z,29.70
2023-05-21T00:32:21.301Z,29.53
2023-05-21T00:33:54.458Z,28.77
2023-05-21T00:35:27.596Z,29.27
2023-05-21T00:37:02.719Z,30.60
2023-05-21T00:38:38.117Z,31.10
2023-05-21T00:40:12.604Z,31.63
2023-05-21T00:41:46.663Z,30.87
2023-05-21T00:43:19.784Z,30.70
2023-05-21T00:44:54.175Z,31.77
2023-05-21T00:46:28.584Z,31.00
2023-05-21T00:48:02.802Z,31.37
2023-05-21T00:49:35.141Z,32.13
2023-05-21T00:51:08.469Z,32.50
2023-05-21T00:52:42.585Z,30.57
2023-05-21T00:54:17.336Z,32.23
2023-05-21T00:55:51.959Z,31.33
2023-05-21T00:57:27.937Z,31.73
2023-05-21T00:59:05.531Z,31.30
2023-05-21T01:00:40.629Z,32.10
2023-05-21T01:02:14.327Z,32.67
2023-05-21T01:03:48.771Z,32.63
2023-05-21T01:05:23.145Z,32.73
2023-05-21T01:06:56.279Z,31.17
2023-05-21T01:08:29.895Z,33.90
2023-05-21T01:10:06.419Z,33.43
2023-05-21T01:11:42.600Z,33.03
2023-05-21T01:13:17.115Z,32.23
2023-05-21T01:14:50.608Z,32.93
2023-05-21T01:16:23.879Z,33.43
2023-05-21T01:17:57.365Z,32.23
2023-05-21T01:19:29.976Z,32.30
2023-05-21T01:21:03.353Z,33.13
2023-05-21T01:22:36.933Z,33.50
2023-05-21T01:24:11.545Z,33.57
2023-05-21T01:25:44.816Z,30.73
2023-05-21T01:27:17.132Z,31.10
2023-05-21T01:28:50.222Z,29.20
2023-05-21T01:30:25.348Z,29.20
2023-05-21T01:32:09.770Z,31.40
2023-05-21T01:33:49.959Z,30.30
2023-05-21T01:35:27.035Z,29.93
2023-05-21T01:37:06.148Z,28.47
2023-05-21T01:38:43.856Z,29.40
2023-05-21T01:40:24.762Z,30.40
2023-05-21T01:41:58.652Z,30.57
2023-05-21T01:43:35.654Z,32.53
2023-05-21T01:45:08.842Z,30.77
2023-05-21T01:46:42.046Z,30.67
2023-05-21T01:48:17.401Z,28.60
2023-05-21T01:49:51.468Z,28.67
2023-05-21T01:51:25.089Z,27.47
2023-05-21T01:52:58.590Z,28.00
2023-05-21T01:54:30.800Z,32.13
2023-05-21T01:56:05.723Z,30.43
2023-05-21T01:57:39.302Z,28.30
2023-05-21T01:59:12.815Z,27.80
2023-05-21T02:00:46.646Z,29.47
2023-05-21T02:02:20.023Z,28.57
2023-05-21T02:03:53.371Z,29.00
2023-05-21T02:05:26.996Z,26.77
2023-05-21T02:06:59.131Z,27.10
2023-05-21T02:08:33.415Z,27.93
2023-05-21T02:10:07.761Z,28.77
2023-05-21T02:11:42.286Z,29.20
2023-05-21T02:13:15.834Z,29.63
2023-05-21T02:14:50.400Z,28.57
2023-05-21T02:16:23.558Z,30.33
2023-05-21T02:17:55.933Z,29.07
2023-05-21T02:19:29.352Z,31.40
2023-05-21T02:21:02.602Z,32.10
2023-05-21T02:22:34.776Z,32.40
2023-05-21T02:24:08.266Z,32.03
2023-05-21T02:25:40.465Z,34.70
2023-05-21T02:27:17.494Z,34.10
2023-05-21T02:28:49.624Z,34.67
2023-05-21T02:30:23.213Z,34.43
2023-05-21T02:31:56.352Z,35.90
2023-05-21T02:33:29.441Z,35.47
2023-05-21T02:35:04.665Z,35.13
2023-05-21T02:36:36.758Z,33.17
2023-05-21T02:38:10.560Z,32.20
2023-05-21T02:39:43.895Z,31.37
2023-05-21T02:41:17.144Z,32.30
2023-05-21T02:42:51.874Z,32.33
2023-05-21T02:44:26.840Z,32.63
2023-05-21T02:46:00.085Z,32.37
2023-05-21T02:47:35.022Z,33.57
2023-05-21T02:49:07.185Z,31.03
2023-05-21T02:50:40.307Z,28.23
2023-05-21T02:52:13.866Z,26.63
2023-05-21T02:53:47.047Z,29.10
2023-05-21T02:55:20.801Z,27.83
2023-05-21T02:56:53.921Z,30.63
2023-05-21T02:58:28.782Z,32.33
2023-05-21T03:00:01.156Z,29.33
2023-05-21T03:01:35.090Z,27.47
2023-05-21T03:03:08.550Z,30.90
2023-05-21T03:04:46.365Z,33.57
2023-05-21T03:06:20.153Z,30.77
2023-05-21T03:07:53.427Z,33.03
2023-05-21T03:09:26.895Z,34.17
2023-05-21T03:11:02.311Z,33.00
2023-05-21T03:12:34.468Z,33.07
2023-05-21T03:14:09.864Z,33.73
2023-05-21T03:15:43.980Z,33.80
2023-05-21T03:17:17.188Z,33.47
2023-05-21T03:18:50.444Z,34.47
2023-05-21T03:20:23.578Z,33.93
2023-05-21T03:21:56.728Z,34.63
2023-05-21T03:23:29.895Z,34.57
2023-05-21T03:25:02.665Z,35.43
2023-05-21T03:26:35.770Z,34.43
2023-05-21T03:28:10.014Z,33.77
2023-05-21T03:29:55.099Z,33.47
2023-05-21T03:31:28.885Z,33.93
2023-05-21T03:33:16.484Z,31.97
2023-05-21T03:34:50.090Z,32.67
2023-05-21T03:36:24.550Z,32.57
2023-05-21T03:37:58.427Z,33.47
2023-05-21T03:39:31.566Z,33.33
2023-05-21T03:41:04.739Z,33.17
2023-05-21T03:42:37.884Z,34.70
2023-05-21T03:44:11.287Z,32.93
2023-05-21T03:46:00.276Z,32.07
2023-05-21T03:47:51.852Z,32.93
2023-05-21T03:49:25.509Z,32.53
2023-05-21T03:51:00.727Z,32.60
2023-05-21T03:52:33.905Z,31.47
2023-05-21T03:54:06.646Z,32.03
2023-05-21T03:55:41.815Z,30.93
2023-05-21T03:57:14.914Z,30.60
2023-05-21T03:58:47.260Z,30.73
2023-05-21T04:00:20.680Z,30.57
2023-05-21T04:01:56.320Z,30.73
2023-05-21T04:03:29.842Z,29.23
2023-05-21T04:05:05.117Z,29.43
2023-05-21T04:06:38.401Z,30.23
2023-05-21T04:08:11.680Z,29.23
2023-05-21T04:09:44.822Z,29.67
2023-05-21T04:11:19.899Z,29.43
2023-05-21T04:12:54.610Z,28.97
2023-05-21T04:14:27.713Z,27.57
2023-05-21T04:16:01.194Z,27.97
2023-05-21T04:17:35.779Z,28.53
2023-05-21T04:19:09.011Z,27.57
2023-05-21T04:20:42.186Z,27.53
2023-05-21T04:22:15.364Z,27.83
2023-05-21T04:23:48.558Z,28.13
2023-05-21T04:25:31.072Z,26.33
2023-05-21T04:27:04.299Z,27.00
2023-05-21T04:28:38.025Z,26.33
2023-05-21T04:30:12.059Z,25.97
2023-05-21T04:31:45.653Z,26.23
2023-05-21T04:33:21.122Z,26.50
2023-05-21T04:34:54.285Z,25.90
2023-05-21T04:36:29.035Z,25.73
2023-05-21T04:38:04.272Z,26.87
2023-05-21T04:39:38.047Z,27.33
2023-05-21T04:41:10.918Z,25.30
2023-05-21T04:42:44.088Z,25.23
2023-05-21T04:44:18.365Z,24.57
2023-05-21T04:45:52.599Z,24.30
2023-05-21T04:47:25.740Z,26.37
2023-05-21T04:49:02.851Z,24.03
2023-05-21T04:50:36.047Z,25.53
2023-05-21T04:52:09.354Z,24.50
2023-05-21T04:53:42.637Z,24.33
2023-05-21T04:55:15.825Z,24.47
2023-05-21T04:56:48.951Z,23.53
2023-05-21T04:58:23.230Z,24.13
2023-05-21T04:59:57.906Z,23.30
2023-05-21T05:01:32.351Z,23.60
2023-05-21T05:03:07.831Z,25.27
2023-05-21T05:04:43.981Z,23.10
2023-05-21T05:06:17.932Z,23.00
2023-05-21T05:07:51.756Z,23.17
2023-05-21T05:09:25.270Z,23.20
2023-05-21T05:10:59.076Z,22.07
2023-05-21T05:12:32.408Z,22.57
2023-05-21T05:14:05.566Z,22.47
2023-05-21T05:15:37.816Z,22.23
2023-05-21T05:17:11.362Z,21.53
2023-05-21T05:18:44.515Z,22.43
2023-05-21T05:20:19.935Z,21.73
2023-05-21T05:21:53.072Z,21.43
2023-05-21T05:23:27.164Z,21.43
2023-05-21T05:25:00.256Z,22.00
2023-05-21T05:26:33.414Z,21.53
2023-05-21T05:28:06.690Z,22.53
2023-05-21T05:29:40.253Z,20.93
2023-05-21T05:31:12.442Z,21.27
2023-05-21T05:32:45.694Z,21.87
2023-05-21T05:34:19.948Z,20.70
2023-05-21T05:35:55.690Z,21.93
2023-05-21T05:37:28.864Z,20.73
2023-05-21T05:39:02.069Z,21.27
2023-05-21T05:40:35.467Z,20.97
2023-05-21T05:42:08.574Z,20.13
2023-05-21T05:43:40.758Z,21.63
2023-05-21T05:45:13.899Z,19.43
2023-05-21T05:46:47.228Z,18.13
2023-05-21T05:48:19.460Z,17.83
2023-05-21T05:49:52.763Z,19.00
2023-05-21T05:51:27.430Z,17.03
2023-05-21T05:53:00.627Z,16.93
2023-05-21T05:54:33.732Z,17.07
2023-05-21T05:56:07.718Z,17.30
2023-05-21T05:57:40.911Z,17.83
2023-05-21T05:59:19.100Z,17.20
2023-05-21T06:00:55.774Z,16.53
2023-05-21T06:02:30.561Z,16.77
2023-05-21T06:04:03.752Z,17.70
2023-05-21T06:05:37.485Z,16.17
2023-05-21T06:07:12.815Z,16.87
2023-05-21T06:08:47.354Z,16.50
2023-05-21T06:10:20.724Z,16.43
2023-05-21T06:11:53.909Z,16.60
2023-05-21T06:13:27.175Z,16.13
2023-05-21T06:15:00.582Z,16.43
2023-05-21T06:16:34.327Z,17.17
2023-05-21T06:18:07.513Z,16.07
2023-05-21T06:19:41.087Z,15.93
2023-05-21T06:21:14.226Z,15.70
2023-05-21T06:22:48.802Z,15.50
2023-05-21T06:24:22.471Z,15.87
2023-05-21T06:25:54.614Z,15.37
2023-05-21T06:27:27.724Z,15.27
2023-05-21T06:29:00.905Z,15.13
2023-05-21T06:30:35.587Z,15.73
2023-05-21T06:32:08.502Z,14.90
2023-05-21T06:33:42.601Z,15.43
2023-05-21T06:35:16.369Z,15.40
2023-05-21T06:36:49.718Z,15.67
2023-05-21T06:38:25.059Z,14.90
2023-05-21T06:39:58.600Z,15.57
2023-05-21T06:41:31.763Z,15.10
2023-05-21T06:43:08.882Z,15.67
2023-05-21T06:44:45.279Z,15.43
2023-05-21T06:46:39.482Z,16.03
2023-05-21T06:48:16.881Z,14.97
2023-05-21T06:49:49.989Z,15.07
2023-05-21T06:51:23.102Z,15.07
2023-05-21T06:52:56.607Z,15.63
2023-05-21T06:54:30.266Z,15.47
2023-05-21T06:56:03.398Z,15.27
2023-05-21T06:57:45.707Z,15.43
2023-05-21T06:59:17.937Z,15.37
2023-05-21T07:00:51.092Z,15.37
2023-05-21T07:02:24.430Z,15.73
2023-05-21T07:03:57.567Z,15.70
2023-05-21T07:05:32.027Z,16.07
2023-05-21T07:07:05.561Z,15.10
2023-05-21T07:08:39.385Z,15.60
2023-05-21T07:10:13.970Z,15.97
2023-05-21T07:11:47.120Z,15.70
2023-05-21T07:13:22.531Z,15.97
2023-05-21T07:14:57.579Z,16.17
2023-05-21T07:16:32.551Z,15.57
2023-05-21T07:18:05.996Z,15.67
2023-05-21T07:19:39.198Z,15.53
2023-05-21T07:21:12.683Z,16.17
2023-05-21T07:22:45.887Z,16.13
2023-05-21T07:24:21.160Z,15.60
2023-05-21T07:25:57.256Z,16.37
2023-05-21T07:27:31.059Z,16.27
2023-05-21T07:29:04.299Z,16.33
2023-05-21T07:30:37.406Z,15.67
2023-05-21T07:32:15.386Z,16.50
2023-05-21T07:33:48.999Z,16.07
2023-05-21T07:35:23.981Z,16.53
2023-05-21T07:36:57.107Z,15.60
2023-05-21T07:38:30.253Z,16.53
2023-05-21T07:40:04.336Z,16.33
2023-05-21T07:41:38.879Z,16.93
2023-05-21T07:43:14.447Z,15.87
2023-05-21T07:44:47.976Z,16.27
2023-05-21T07:46:21.195Z,16.70
2023-05-21T07:47:57.798Z,16.30
2023-05-21T07:49:32.039Z,16.60
2023-05-21T07:51:05.560Z,15.87
2023-05-21T07:52:38.843Z,15.90
2023-05-21T07:54:12.168Z,15.60
2023-05-21T07:55:48.509Z,16.87
2023-05-21T07:57:28.157Z,16.10
2023-05-21T07:59:04.628Z,17.23
2023-05-21T08:00:44.961Z,15.53
2023-05-21T08:02:18.653Z,16.10
2023-05-21T08:03:53.228Z,15.73
2023-05-21T08:05:26.607Z,15.70
2023-05-21T08:06:59.791Z,15.80
2023-05-21T08:08:32.966Z,15.07
2023-05-21T08:10:07.133Z,15.50
2023-05-21T08:11:40.255Z,15.40
2023-05-21T08:13:15.950Z,15.03
2023-05-21T08:14:49.310Z,14.90
2023-05-21T08:16:23.486Z,15.30
2023-05-21T08:17:56.814Z,14.67
2023-05-21T08:19:30.088Z,14.93
2023-05-21T08:21:03.534Z,14.27
2023-05-21T08:22:36.719Z,14.40
2023-05-21T08:24:09.851Z,14.40
2023-05-21T08:25:43.095Z,14.40
2023-05-21T08:27:17.196Z,14.50
2023-05-21T08:28:52.012Z,14.43
2023-05-21T08:30:25.317Z,13.07
2023-05-21T08:31:58.457Z,14.33
2023-05-21T08:33:32.085Z,14.70
2023-05-21T08:35:07.255Z,14.60
2023-05-21T08:37:06.304Z,14.27
2023-05-21T08:38:58.123Z,14.33
2023-05-21T08:40:38.252Z,13.63
2023-05-21T08:42:29.091Z,13.43
2023-05-21T08:44:14.726Z,13.80
2023-05-21T08:45:54.715Z,13.23
2023-05-21T08:47:35.566Z,14.20
2023-05-21T08:49:14.085Z,13.95
2023-05-21T08:50:47.895Z,13.63
2023-05-21T08:52:27.482Z,12.63
2023-05-21T08:54:03.662Z,14.02
2023-05-21T08:55:38.948Z,13.90
2023-05-21T08:57:12.683Z,14.37
2023-05-21T08:58:48.070Z,14.57
2023-05-21T09:00:25.820Z,12.90
2023-05-21T09:02:00.331Z,13.77
2023-05-21T09:03:41.844Z,13.63
2023-05-21T09:05:16.678Z,13.80
2023-05-21T09:06:50.004Z,13.48
2023-05-21T09:08:32.610Z,14.10
2023-05-21T09:10:13.090Z,14.38
2023-05-21T09:11:48.471Z,14.10
2023-05-21T09:13:22.479Z,13.98
2023-05-21T09:14:58.423Z,13.07
2023-05-21T09:16:37.235Z,13.50
2023-05-21T09:18:10.853Z,13.95
2023-05-21T09:20:12.177Z,13.82
2023-05-21T09:21:48.090Z,13.20
2023-05-21T09:23:25.243Z,13.98
2023-05-21T09:24:58.348Z,13.77
2023-05-21T09:26:31.968Z,13.40
2023-05-21T09:28:13.926Z,13.18
2023-05-21T09:29:47.093Z,13.07
2023-05-21T09:31:22.782Z,13.43
2023-05-21T09:33:00.461Z,13.82
2023-05-21T09:34:37.239Z,14.38
2023-05-21T09:36:11.686Z,12.82
2023-05-21T09:37:45.611Z,14.30
2023-05-21T09:39:29.470Z,13.25
2023-05-21T09:41:06.514Z,13.52
2023-05-21T09:42:39.453Z,13.65
2023-05-21T09:44:13.528Z,13.77
2023-05-21T09:45:53.476Z,13.60
2023-05-21T09:47:27.773Z,14.35
2023-05-21T09:49:02.311Z,13.63
2023-05-21T09:50:37.780Z,13.70
2023-05-21T09:52:11.098Z,13.65
2023-05-21T09:53:44.929Z,13.50
2023-05-21T09:55:18.333Z,14.07
2023-05-21T09:56:53.406Z,13.80
2023-05-21T09:58:26.832Z,14.38
2023-05-21T09:59:59.989Z,14.30
2023-05-21T10:01:34.467Z,14.30
2023-05-21T10:03:13.554Z,14.93
2023-05-21T10:04:50.523Z,14.53
2023-05-21T10:06:27.472Z,13.57
2023-05-21T10:08:02.288Z,13.67
2023-05-21T10:09:35.596Z,13.23
2023-05-21T10:11:09.563Z,13.00
2023-05-21T10:12:45.914Z,14.00
2023-05-21T10:14:24.362Z,12.57
2023-05-21T10:16:03.106Z,13.65
2023-05-21T10:17:36.527Z,13.10
2023-05-21T10:19:11.154Z,13.25
2023-05-21T10:20:46.948Z,13.25
2023-05-21T10:22:20.255Z,12.80
2023-05-21T10:23:54.258Z,12.50
2023-05-21T10:25:27.773Z,12.90
2023-05-21T10:27:03.929Z,13.35
2023-05-21T10:28:38.408Z,12.55
2023-05-21T10:30:12.599Z,12.55
2023-05-21T10:31:49.655Z,12.98
2023-05-21T10:33:25.190Z,13.88
2023-05-21T10:35:01.327Z,13.98
2023-05-21T10:36:37.550Z,13.00
2023-05-21T10:38:10.836Z,14.40
2023-05-21T10:39:45.905Z,15.60
2023-05-21T10:41:21.072Z,16.20
2023-05-21T10:43:12.056Z,16.63
2023-05-21T10:44:58.202Z,14.63
2023-05-21T10:46:56.780Z,14.30
2023-05-21T10:48:40.461Z,12.23
2023-05-21T10:50:55.482Z,13.10
2023-05-21T10:52:45.592Z,12.50
2023-05-21T10:54:57.606Z,11.30
2023-05-21T10:56:36.353Z,12.10
2023-05-21T10:58:30.751Z,11.23
2023-05-21T11:00:05.127Z,10.83
2023-05-21T11:01:40.481Z,10.50
2023-05-21T11:03:15.013Z,10.23
2023-05-21T11:04:49.963Z,10.93
2023-05-21T11:06:26.021Z,10.60
2023-05-21T11:08:01.662Z,10.63
2023-05-21T11:09:34.740Z,10.00
2023-05-21T11:11:08.019Z,10.23
2023-05-21T11:13:13.399Z,10.60
2023-05-21T11:14:57.794Z,10.00
2023-05-21T11:16:31.158Z,10.07
2023-05-21T11:18:04.461Z,10.10
2023-05-21T11:19:39.697Z,10.50
2023-05-21T11:21:13.734Z,10.50
2023-05-21T11:22:47.277Z,10.13
2023-05-21T11:24:22.066Z,9.90
2023-05-21T11:26:02.580Z,10.70
2023-05-21T11:27:36.990Z,10.23
2023-05-21T11:29:09.558Z,9.93
2023-05-21T11:30:42.755Z,9.13
2023-05-21T11:32:17.470Z,9.60
2023-05-21T11:34:09.910Z,9.20
2023-05-21T11:35:59.241Z,9.60
2023-05-21T11:37:34.706Z,9.53
2023-05-21T11:39:10.996Z,9.60
2023-05-21T11:40:55.181Z,10.40
2023-05-21T11:42:33.658Z,9.70
2023-05-21T11:44:09.857Z,9.40
2023-05-21T11:45:47.174Z,10.00
2023-05-21T11:47:20.128Z,9.90
2023-05-21T11:48:54.573Z,10.03
2023-05-21T11:50:30.503Z,9.97
2023-05-21T11:52:03.505Z,11.43
2023-05-21T11:53:38.812Z,9.83
2023-05-21T11:55:12.550Z,10.73
2023-05-21T11:56:46.137Z,10.53
2023-05-21T11:58:20.245Z,10.90
2023-05-21T11:59:53.700Z,10.90
2023-05-21T12:01:27.722Z,11.40
2023-05-21T12:03:01.989Z,11.43
2023-05-21T12:04:36.551Z,12.60
2023-05-21T12:06:09.800Z,13.17
2023-05-21T12:07:42.978Z,13.67
2023-05-21T12:09:16.071Z,13.87
2023-05-21T12:10:49.281Z,14.53
2023-05-21T12:12:27.217Z,14.77
2023-05-21T12:14:02.573Z,14.57
2023-05-21T12:15:36.018Z,14.50
2023-05-21T12:17:10.310Z,13.93
2023-05-21T12:18:43.493Z,14.37
2023-05-21T12:20:17.130Z,14.73
2023-05-21T12:21:50.370Z,13.93
2023-05-21T12:23:25.522Z,14.10
2023-05-21T12:25:01.038Z,13.93
2023-05-21T12:26:35.502Z,13.93
2023-05-21T12:28:10.357Z,13.47
2023-05-21T12:29:45.060Z,13.80
2023-05-21T12:31:18.231Z,12.63
2023-05-21T12:32:52.803Z,12.20
2023-05-21T12:34:43.003Z,13.07
2023-05-21T12:36:23.515Z,12.60
2023-05-21T12:37:56.749Z,12.80
2023-05-21T12:39:30.276Z,13.67
2023-05-21T12:41:05.675Z,14.03
2023-05-21T12:42:40.262Z,13.33
2023-05-21T12:44:14.764Z,13.13
2023-05-21T12:45:47.906Z,13.47
2023-05-21T12:47:23.861Z,14.00
2023-05-21T12:48:57.031Z,14.50
2023-05-21T12:50:30.133Z,14.07
2023-05-21T12:52:09.154Z,14.87
2023-05-21T12:53:43.235Z,14.63
2023-05-21T12:55:17.788Z,14.63
2023-05-21T12:56:49.960Z,13.20
2023-05-21T12:58:23.575Z,13.90
2023-05-21T12:59:59.129Z,13.37
2023-05-21T13:01:32.285Z,14.90
2023-05-21T13:03:06.606Z,14.30
2023-05-21T13:04:40.133Z,14.05
2023-05-21T13:06:14.688Z,15.00
2023-05-21T13:07:48.224Z,13.95
2023-05-21T13:09:20.508Z,14.20
2023-05-21T13:10:53.617Z,14.45
2023-05-21T13:12:29.407Z,14.27
2023-05-21T13:14:02.520Z,14.20
2023-05-21T13:15:37.515Z,14.35
2023-05-21T13:17:10.852Z,14.35
2023-05-21T13:18:43.964Z,13.90
2023-05-21T13:20:20.093Z,13.80
2023-05-21T13:21:53.328Z,13.32
2023-05-21T13:23:26.381Z,14.33
2023-05-21T13:24:59.486Z,13.40
2023-05-21T13:26:32.671Z,13.52
2023-05-21T13:28:08.605Z,12.70
2023-05-21T13:29:41.706Z,12.55
2023-05-21T13:31:16.332Z,13.18
2023-05-21T13:32:49.963Z,13.43
2023-05-21T13:34:22.215Z,13.18
2023-05-21T13:35:55.410Z,13.00
2023-05-21T13:37:28.636Z,12.77
2023-05-21T13:39:01.727Z,13.18
2023-05-21T13:40:37.337Z,13.00
2023-05-21T13:42:11.938Z,11.90
2023-05-21T13:43:45.084Z,11.37
2023-05-21T13:45:20.245Z,11.57
2023-05-21T13:46:54.858Z,11.40
2023-05-21T13:48:28.011Z,11.33
2023-05-21T13:50:01.688Z,10.80
2023-05-21T13:51:39.260Z,11.17
2023-05-21T13:53:12.658Z,10.50
2023-05-21T13:54:45.837Z,9.40
2023-05-21T13:56:20.715Z,9.90
2023-05-21T13:57:53.937Z,11.33
2023-05-21T13:59:27.037Z,9.43
2023-05-21T14:01:00.185Z,11.20
2023-05-21T14:02:34.886Z,9.73
2023-05-21T14:04:08.336Z,9.93
2023-05-21T14:05:41.454Z,9.87
2023-05-21T14:07:14.559Z,10.27
2023-05-21T14:08:47.637Z,10.87
2023-05-21T14:10:21.205Z,10.47
2023-05-21T14:11:55.136Z,10.50
2023-05-21T14:13:28.226Z,11.30
2023-05-21T14:15:01.412Z,10.40
2023-05-21T14:16:34.619Z,11.03
2023-05-21T14:18:12.241Z,11.80
2023-05-21T14:19:45.439Z,11.93
2023-05-21T14:21:18.859Z,12.07
2023-05-21T14:22:51.955Z,11.67
2023-05-21T14:24:25.055Z,11.27
2023-05-21T14:25:58.187Z,11.33
2023-05-21T14:27:31.431Z,11.17
2023-05-21T14:29:04.603Z,10.90
2023-05-21T14:30:37.695Z,10.83
2023-05-21T14:32:10.836Z,10.77
2023-05-21T14:33:45.353Z,10.07
2023-05-21T14:35:18.553Z,9.90
2023-05-21T14:36:51.710Z,9.17
2023-05-21T14:38:24.988Z,8.50
2023-05-21T14:39:58.495Z,8.97
2023-05-21T14:41:31.621Z,8.90
2023-05-21T14:43:05.692Z,8.70
2023-05-21T14:44:38.802Z,7.97
2023-05-21T14:46:12.020Z,8.00
2023-05-21T14:47:45.212Z,7.73
2023-05-21T14:49:19.734Z,7.50
2023-05-21T14:50:52.897Z,7.27
2023-05-21T14:52:26.031Z,7.40
2023-05-21T14:53:59.124Z,7.63
2023-05-21T14:55:35.350Z,7.53
2023-05-21T14:57:09.772Z,8.00
2023-05-21T14:58:42.905Z,7.77
2023-05-21T15:00:16.416Z,8.17
2023-05-21T15:01:49.606Z,7.83
2023-05-21T15:03:22.847Z,8.07
2023-05-21T15:04:57.426Z,8.23
2023-05-21T15:06:30.540Z,9.00
2023-05-21T15:08:04.530Z,9.10
2023-05-21T15:09:37.595Z,8.33
2023-05-21T15:11:11.533Z,9.37
2023-05-21T15:12:44.736Z,9.23
2023-05-21T15:14:17.811Z,8.70
2023-05-21T15:15:51.261Z,8.67
2023-05-21T15:17:24.434Z,8.20
2023-05-21T15:18:57.646Z,8.10
2023-05-21T15:20:32.191Z,8.53
2023-05-21T15:22:05.349Z,8.40
2023-05-21T15:23:38.582Z,8.47
2023-05-21T15:25:11.841Z,7.77
2023-05-21T15:26:45.137Z,8.53
2023-05-21T15:28:18.336Z,8.13
2023-05-21T15:29:51.674Z,7.80
2023-05-21T15:31:24.764Z,7.47
2023-05-21T15:32:58.031Z,8.50
2023-05-21T15:34:31.188Z,7.53
2023-05-21T15:36:06.147Z,7.97
2023-05-21T15:37:39.583Z,6.93
2023-05-21T15:39:12.706Z,7.60
2023-05-21T15:40:45.806Z,7.53
2023-05-21T15:42:18.907Z,7.73
2023-05-21T15:43:52.008Z,7.40
2023-05-21T15:45:25.705Z,7.53
2023-05-21T15:46:58.859Z,7.87
2023-05-21T15:48:31.973Z,7.50
2023-05-21T15:50:05.336Z,7.37
2023-05-21T15:51:40.322Z,7.47
2023-05-21T15:53:13.432Z,7.47
2023-05-21T15:54:46.621Z,8.23
2023-05-21T15:56:19.712Z,7.40
2023-05-21T15:57:52.828Z,7.93
2023-05-21T15:59:27.533Z,7.87
2023-05-21T16:01:00.688Z,7.97
2023-05-21T16:02:33.958Z,7.00
2023-05-21T16:04:07.208Z,7.67
2023-05-21T16:05:40.452Z,7.80
2023-05-21T16:07:15.067Z,8.20
2023-05-21T16:08:49.112Z,7.57
2023-05-21T16:10:23.265Z,6.93
2023-05-21T16:11:56.445Z,7.63
2023-05-21T16:13:29.585Z,7.40
2023-05-21T16:15:02.703Z,7.70
2023-05-21T16:16:35.956Z,7.17
2023-05-21T16:18:09.732Z,6.90
2023-05-21T16:19:43.081Z,7.07
2023-05-21T16:21:16.337Z,7.83
2023-05-21T16:22:51.141Z,7.13
2023-05-21T16:24:24.286Z,7.50
2023-05-21T16:25:57.345Z,7.87
2023-05-21T16:27:30.478Z,7.67
2023-05-21T16:29:03.650Z,7.47
2023-05-21T16:30:36.773Z,7.63
2023-05-21T16:32:13.003Z,6.90
2023-05-21T16:33:46.256Z,7.73
2023-05-21T16:35:19.432Z,7.07
2023-05-21T16:36:52.727Z,7.90
2023-05-21T16:38:27.254Z,7.23
2023-05-21T16:40:00.362Z,7.57
2023-05-21T16:41:33.524Z,7.60
2023-05-21T16:43:06.604Z,7.50
2023-05-21T16:44:39.750Z,7.10
2023-05-21T16:46:12.890Z,6.93
2023-05-21T16:47:46.181Z,6.57
2023-05-21T16:49:19.468Z,7.67
2023-05-21T16:50:52.617Z,6.90
2023-05-21T16:52:25.926Z,6.97
2023-05-21T16:54:00.376Z,7.23
2023-05-21T16:55:35.125Z,6.93
2023-05-21T16:57:08.511Z,6.77
2023-05-21T16:58:41.655Z,6.87
2023-05-21T17:00:15.726Z,7.70
2023-05-21T17:01:48.917Z,7.10
2023-05-21T17:03:22.113Z,6.97
2023-05-21T17:04:55.501Z,7.07
2023-05-21T17:06:28.603Z,6.83
2023-05-21T17:08:01.721Z,7.17
2023-05-21T17:09:36.163Z,7.20
2023-05-21T17:11:09.432Z,7.50
2023-05-21T17:12:42.528Z,6.77
2023-05-21T17:14:32.630Z,6.63
2023-05-21T17:16:07.451Z,6.97
2023-05-21T17:17:40.701Z,6.97
2023-05-21T17:19:13.925Z,7.00
2023-05-21T17:20:47.145Z,6.87
2023-05-21T17:22:20.540Z,6.27
2023-05-21T17:23:53.679Z,6.40
2023-05-21T17:25:28.227Z,7.00
2023-05-21T17:27:01.477Z,6.73
2023-05-21T17:28:34.606Z,7.17
2023-05-21T17:30:10.037Z,7.23
2023-05-21T17:31:43.255Z,6.70
2023-05-21T17:33:16.462Z,7.43
2023-05-21T17:34:49.575Z,7.50
2023-05-21T17:36:22.690Z,7.17
2023-05-21T17:37:55.823Z,7.20
2023-05-21T17:39:28.953Z,6.57
2023-05-21T17:41:03.828Z,7.43
2023-05-21T17:42:36.978Z,7.07
2023-05-21T17:44:11.346Z,7.40
2023-05-21T17:45:44.475Z,7.23
2023-05-21T17:47:17.609Z,7.47
2023-05-21T17:48:50.738Z,7.73
2023-05-21T17:50:23.868Z,6.97
2023-05-21T17:51:57.034Z,7.60
2023-05-21T17:53:30.176Z,7.43
2023-05-21T17:55:03.371Z,7.07
2023-05-21T17:56:39.763Z,7.20
2023-05-21T17:58:12.900Z,7.50
2023-05-21T17:59:46.122Z,7.20
2023-05-21T18:01:19.464Z,7.43
2023-05-21T18:02:52.694Z,7.43
2023-05-21T18:04:25.856Z,7.33
2023-05-21T18:05:59.006Z,7.77
2023-05-21T18:07:32.123Z,7.50
2023-05-21T18:09:04.521Z,7.07
2023-05-21T18:10:37.711Z,7.37
2023-05-21T18:12:12.299Z,7.13
2023-05-21T18:13:45.374Z,7.90
2023-05-21T18:15:18.493Z,7.50
2023-05-21T18:16:51.612Z,7.20
2023-05-21T18:18:24.917Z,7.20
2023-05-21T18:19:58.019Z,7.80
2023-05-21T18:21:31.105Z,7.70
2023-05-21T18:23:04.227Z,7.43
2023-05-21T18:24:38.208Z,7.10
2023-05-21T18:26:11.357Z,7.17
2023-05-21T18:27:46.226Z,7.27
2023-05-21T18:29:19.344Z,7.23
2023-05-21T18:30:52.507Z,7.70
2023-05-21T18:32:25.766Z,7.30
2023-05-21T18:33:59.021Z,7.50
2023-05-21T18:35:32.191Z,7.00
2023-05-21T18:37:06.768Z,6.97
2023-05-21T18:38:40.057Z,7.30
2023-05-21T18:40:14.160Z,7.77
2023-05-21T18:41:47.326Z,7.43
2023-05-21T18:43:22.137Z,7.77
2023-05-21T18:44:55.367Z,8.20
2023-05-21T18:46:28.686Z,7.47
2023-05-21T18:48:03.061Z,7.23
2023-05-21T18:49:36.599Z,7.87
2023-05-21T18:51:09.885Z,7.77
2023-05-21T18:52:43.231Z,7.07
2023-05-21T18:54:16.332Z,7.27
2023-05-21T18:55:49.499Z,7.10
2023-05-21T18:57:21.608Z,7.13
2023-05-21T18:58:56.117Z,7.40
2023-05-21T19:00:29.256Z,7.83
2023-05-21T19:02:02.376Z,7.43
2023-05-21T19:03:35.461Z,8.20
2023-05-21T19:05:09.441Z,8.03
2023-05-21T19:06:42.533Z,7.30
2023-05-21T19:08:15.682Z,8.10
2023-05-21T19:09:49.365Z,8.20
2023-05-21T19:11:23.551Z,8.00
2023-05-21T19:12:57.281Z,7.87
2023-05-21T19:14:31.710Z,7.80
2023-05-21T19:16:07.350Z,8.00
2023-05-21T19:17:40.739Z,7.90
2023-05-21T19:19:13.944Z,8.17
2023-05-21T19:20:47.114Z,8.47
2023-05-21T19:22:20.264Z,8.20
2023-05-21T19:23:54.095Z,8.43
2023-05-21T19:25:27.476Z,8.70
2023-05-21T19:27:01.092Z,8.33
2023-05-21T19:28:34.209Z,8.10
2023-05-21T19:30:10.414Z,8.20
2023-05-21T19:31:43.562Z,7.67
2023-05-21T19:33:17.086Z,8.20
2023-05-21T19:34:50.312Z,8.03
2023-05-21T19:36:23.521Z,8.07
2023-05-21T19:37:59.539Z,8.33
2023-05-21T19:39:38.865Z,8.27
2023-05-21T19:41:11.989Z,8.80
2023-05-21T19:42:45.629Z,8.10
2023-05-21T19:44:18.718Z,8.60
2023-05-21T19:45:53.229Z,8.00
2023-05-21T19:47:27.271Z,8.50
2023-05-21T19:49:00.579Z,8.13
2023-05-21T19:50:33.659Z,8.63
2023-05-21T19:52:07.292Z,8.93
2023-05-21T19:53:40.437Z,8.53
2023-05-21T19:55:14.010Z,8.77
2023-05-21T19:56:47.126Z,9.13
2023-05-21T19:58:23.637Z,8.93
2023-05-21T19:59:56.990Z,9.10
2023-05-21T20:01:35.352Z,8.93
2023-05-21T20:03:08.561Z,9.30
2023-05-21T20:04:41.686Z,8.93
2023-05-21T20:06:18.762Z,9.40
2023-05-21T20:07:52.019Z,9.67
2023-05-21T20:09:25.164Z,8.80
2023-05-21T20:10:58.272Z,9.57
2023-05-21T20:12:31.541Z,9.17
2023-05-21T20:14:04.591Z,9.40
2023-05-21T20:15:37.671Z,9.23
2023-05-21T20:17:12.204Z,9.60
2023-05-21T20:18:47.066Z,9.93
2023-05-21T20:20:22.942Z,8.93
2023-05-21T20:21:56.108Z,9.40
2023-05-21T20:23:29.192Z,9.00
2023-05-21T20:25:03.921Z,9.43
2023-05-21T20:26:37.059Z,9.87
2023-05-21T20:28:10.171Z,9.73
2023-05-21T20:29:43.892Z,9.73
2023-05-21T20:31:17.020Z,9.53
2023-05-21T20:32:51.623Z,9.90